Time;durP1;ratioP1;P1;durP2;ratioP2;P2;SDS_P1;SDS_P2;PMS_P1;PMS_P2;Temp;Humidity;BMP_temperature;BMP_pressure;BME280_temperature;BME280_humidity;BME280_pressure;Samples;Min_cycle;Max_cycle;Signal;HPM_P1;HPM_P2
2022/05/26 00:01:18;;;;;;;6.97;1.20;;;9.10;94.00;;;;;;4196676;28;20176;-66
2022/05/26 00:03:19;;;;;;;1.67;1.00;;;9.10;94.20;;;;;;4196753;28;20294;-66
2022/05/26 00:05:19;;;;;;;0.90;0.90;;;9.20;93.90;;;;;;4196071;28;20192;-67
2022/05/26 00:07:20;;;;;;;1.10;1.00;;;9.20;93.60;;;;;;4196597;28;20182;-66
2022/05/26 00:09:21;;;;;;;0.80;0.80;;;9.20;93.60;;;;;;4196525;28;20179;-66
2022/05/26 00:11:28;;;;;;;1.30;1.20;;;9.20;93.70;;;;;;4196463;28;20185;-66
2022/05/26 00:13:29;;;;;;;1.13;0.90;;;9.20;93.70;;;;;;4196055;28;20609;-66
2022/05/26 00:15:30;;;;;;;2.20;1.20;;;9.20;93.70;;;;;;4195621;28;20190;-66
2022/05/26 00:17:31;;;;;;;2.20;1.00;;;9.20;93.70;;;;;;4196289;28;20183;-66
2022/05/26 00:19:32;;;;;;;1.20;1.10;;;9.10;93.90;;;;;;4196097;28;20196;-66
2022/05/26 00:21:33;;;;;;;2.77;1.00;;;9.00;94.20;;;;;;4196075;28;20198;-67
2022/05/26 00:23:34;;;;;;;0.97;0.83;;;9.00;94.20;;;;;;4195772;28;20435;-68
2022/05/26 00:25:34;;;;;;;3.23;0.90;;;9.00;94.20;;;;;;4195583;28;20891;-67
2022/05/26 00:27:35;;;;;;;3.43;1.03;;;9.00;94.20;;;;;;4196168;28;20207;-68
2022/05/26 00:29:35;;;;;;;0.80;0.80;;;9.00;94.20;;;;;;4196048;28;20185;-67
2022/05/26 00:31:36;;;;;;;1.90;1.43;;;8.90;94.20;;;;;;4196271;28;20184;-68
2022/05/26 00:33:36;;;;;;;0.80;0.80;;;9.00;94.20;;;;;;4195703;28;20197;-67
2022/05/26 00:35:40;;;;;;;0.70;0.70;;;9.10;94.10;;;;;;4195454;28;20186;-68
2022/05/26 00:37:41;;;;;;;1.00;0.90;;;9.00;94.20;;;;;;4195944;28;20234;-68
2022/05/26 00:39:42;;;;;;;1.63;0.90;;;9.00;94.20;;;;;;4195516;28;20465;-68
2022/05/26 00:41:48;;;;;;;1.73;1.00;;;9.10;94.00;;;;;;4195521;28;20969;-68
2022/05/26 00:43:49;;;;;;;1.30;0.90;;;9.10;93.80;;;;;;4195805;28;20178;-66
2022/05/26 00:45:56;;;;;;;1.50;1.00;;;9.10;93.70;;;;;;4194958;28;20772;-66
2022/05/26 00:47:56;;;;;;;1.27;0.80;;;9.10;93.70;;;;;;4195624;28;20229;-67
2022/05/26 00:50:17;;;;;;;0.90;0.90;;;9.10;93.70;;;;;;4195466;28;20512;-66
2022/05/26 00:52:27;;;;;;;2.10;1.10;;;9.10;93.60;;;;;;4195569;28;20306;-66
2022/05/26 00:54:28;;;;;;;0.87;0.87;;;9.10;93.80;;;;;;4195779;28;20179;-67
2022/05/26 00:56:38;;;;;;;1.00;0.90;;;9.00;94.10;;;;;;4195163;28;20425;-66
2022/05/26 00:58:42;;;;;;;4.23;1.13;;;8.90;94.40;;;;;;4195812;28;20429;-66
2022/05/26 01:00:43;;;;;;;1.20;1.00;;;8.90;94.40;;;;;;4195594;28;20185;-67
2022/05/26 01:02:53;;;;;;;1.37;0.90;;;8.90;94.60;;;;;;4195868;28;20196;-67
2022/05/26 01:04:57;;;;;;;1.03;1.00;;;8.90;94.60;;;;;;4195743;28;20168;-67
2022/05/26 01:07:05;;;;;;;3.07;1.10;;;8.90;95.20;;;;;;4195207;28;20521;-66
2022/05/26 01:09:06;;;;;;;3.10;0.93;;;8.90;94.90;;;;;;4195702;28;20452;-66
2022/05/26 01:11:07;;;;;;;1.00;0.90;;;8.80;95.10;;;;;;4195519;28;20449;-67
2022/05/26 01:13:08;;;;;;;2.80;1.00;;;8.80;95.20;;;;;;4195497;28;20441;-67
2022/05/26 01:15:15;;;;;;;1.20;1.10;;;8.80;95.00;;;;;;4195195;28;20415;-67
2022/05/26 01:17:29;;;;;;;1.73;1.00;;;8.90;94.90;;;;;;4195110;28;20177;-66
2022/05/26 01:20:07;;;;;;;1.67;0.97;;;8.90;95.00;;;;;;4195464;28;20446;-67
2022/05/26 01:22:16;;;;;;;2.27;1.33;;;8.80;95.00;;;;;;4195333;28;20474;-66
2022/05/26 01:24:51;;;;;;;1.37;1.00;;;8.80;95.10;;;;;;4195590;28;20402;-66
2022/05/26 01:27:14;;;;;;;1.33;1.23;;;8.80;95.20;;;;;;4194731;28;20533;-67
2022/05/26 01:29:52;;;;;;;1.10;0.90;;;8.90;95.40;;;;;;4195568;28;20411;-67
2022/05/26 01:32:08;;;;;;;1.10;1.00;;;8.90;95.20;;;;;;4195220;28;20410;-67
2022/05/26 01:34:16;;;;;;;2.00;0.97;;;8.80;95.40;;;;;;4195395;28;20479;-67
2022/05/26 01:36:54;;;;;;;0.90;0.90;;;8.80;95.40;;;;;;4193988;28;20407;-67
2022/05/26 01:39:19;;;;;;;0.80;0.80;;;8.80;95.40;;;;;;4194858;28;20755;-67
2022/05/26 01:41:59;;;;;;;1.13;0.90;;;8.80;95.70;;;;;;4195098;28;20987;-67
2022/05/26 01:44:27;;;;;;;0.90;0.90;;;8.80;95.40;;;;;;4186409;28;20442;-66
2022/05/26 01:46:42;;;;;;;1.93;0.93;;;8.90;95.10;;;;;;4194263;28;20412;-67
2022/05/26 01:48:49;;;;;;;2.27;1.20;;;8.90;95.20;;;;;;4194957;28;20446;-67
2022/05/26 01:51:08;;;;;;;1.70;1.50;;;8.80;95.10;;;;;;4194911;28;20434;-68
2022/05/26 01:53:20;;;;;;;2.40;1.10;;;8.80;95.20;;;;;;4194853;28;20481;-68
2022/05/26 01:56:04;;;;;;;3.90;1.00;;;8.80;95.20;;;;;;4194122;28;20411;-67
2022/05/26 01:58:15;;;;;;;2.60;1.00;;;8.80;95.20;;;;;;4194894;28;20456;-68
2022/05/26 02:00:18;;;;;;;0.90;0.90;;;8.80;95.40;;;;;;4194633;28;20492;-67
2022/05/26 02:02:23;;;;;;;1.87;1.13;;;8.80;95.70;;;;;;4194784;28;20437;-67
2022/05/26 02:04:29;;;;;;;0.80;0.80;;;8.90;95.70;;;;;;4194912;28;20399;-67
2022/05/26 02:06:38;;;;;;;2.20;1.10;;;8.80;95.50;;;;;;4194353;28;20418;-68
2022/05/26 02:09:15;;;;;;;1.17;1.03;;;8.90;95.60;;;;;;4194945;28;20257;-68
2022/05/26 02:11:21;;;;;;;1.80;1.00;;;8.80;95.60;;;;;;4193491;28;20521;-68
2022/05/26 02:13:41;;;;;;;1.63;1.03;;;8.70;95.80;;;;;;4194875;28;20442;-68
2022/05/26 02:15:48;;;;;;;1.00;1.00;;;8.60;95.80;;;;;;4177695;28;20411;-67
2022/05/26 02:17:54;;;;;;;1.13;1.00;;;8.60;96.20;;;;;;4176935;28;20422;-68
2022/05/26 02:20:01;;;;;;;1.07;0.90;;;8.60;96.30;;;;;;4178141;28;20323;-68
2022/05/26 02:22:10;;;;;;;1.00;1.00;;;8.60;96.40;;;;;;4178237;28;20197;-67
2022/05/26 02:24:23;;;;;;;2.37;1.20;;;8.60;96.40;;;;;;4178416;28;20516;-67
2022/05/26 02:26:24;;;;;;;1.20;1.10;;;8.50;96.40;;;;;;4177551;28;20415;-68
2022/05/26 02:28:26;;;;;;;1.30;1.10;;;8.50;96.90;;;;;;4178078;28;20462;-67
2022/05/26 02:30:33;;;;;;;2.23;1.10;;;8.50;96.40;;;;;;4178170;28;20849;-67
2022/05/26 02:32:38;;;;;;;2.63;1.00;;;8.50;96.40;;;;;;4178001;28;20460;-67
2022/05/26 02:34:41;;;;;;;1.90;1.37;;;8.50;96.80;;;;;;4178119;28;20412;-68
2022/05/26 02:36:43;;;;;;;1.40;1.10;;;8.40;96.90;;;;;;4174880;28;20452;-67
2022/05/26 02:38:43;;;;;;;2.00;1.10;;;8.50;96.90;;;;;;4178078;28;20647;-67
2022/05/26 02:40:45;;;;;;;1.20;1.00;;;8.40;97.00;;;;;;4178043;28;20424;-68
2022/05/26 02:42:49;;;;;;;1.73;1.20;;;8.40;97.10;;;;;;4178035;28;20249;-67
2022/05/26 02:44:51;;;;;;;1.57;1.20;;;8.40;97.10;;;;;;4177796;28;20463;-67
2022/05/26 02:47:25;;;;;;;1.70;1.30;;;8.50;97.10;;;;;;4177807;28;20485;-68
2022/05/26 02:49:39;;;;;;;1.10;1.00;;;8.40;97.00;;;;;;4180877;28;20433;-68
2022/05/26 02:52:06;;;;;;;1.30;1.10;;;8.30;97.10;;;;;;4181070;28;20418;-68
2022/05/26 02:54:16;;;;;;;1.73;1.00;;;8.30;97.00;;;;;;4179722;28;20419;-68
2022/05/26 02:56:47;;;;;;;1.97;1.00;;;8.40;97.00;;;;;;4185122;28;20830;-68
2022/05/26 02:59:03;;;;;;;1.03;1.00;;;8.30;97.40;;;;;;4193296;28;20501;-68
2022/05/26 03:01:20;;;;;;;1.10;1.00;;;8.20;97.60;;;;;;4197306;28;20436;-68
2022/05/26 03:03:44;;;;;;;2.67;1.33;;;8.30;97.70;;;;;;4197308;28;20445;-68
2022/05/26 03:06:12;;;;;;;1.10;1.00;;;8.30;97.70;;;;;;4196439;28;20406;-68
2022/05/26 03:08:17;;;;;;;1.77;1.07;;;8.30;97.40;;;;;;4197359;28;20812;-68
2022/05/26 03:10:22;;;;;;;1.87;1.13;;;8.30;97.60;;;;;;4197188;28;20998;-68
2022/05/26 03:12:33;;;;;;;1.30;1.20;;;8.20;97.60;;;;;;4197153;28;20464;-68
2022/05/26 03:14:34;;;;;;;3.27;1.30;;;8.20;98.40;;;;;;4197221;28;20426;-67
2022/05/26 03:16:34;;;;;;;2.00;1.10;;;8.20;97.80;;;;;;4196226;28;20428;-68
2022/05/26 03:18:35;;;;;;;2.33;1.30;;;8.10;98.20;;;;;;4197129;28;20218;-68
2022/05/26 03:20:37;;;;;;;1.00;1.00;;;8.10;98.40;;;;;;4196876;28;20221;-68
2022/05/26 03:22:38;;;;;;;1.57;1.20;;;8.10;99.10;;;;;;4197372;28;20438;-68
2022/05/26 03:24:38;;;;;;;1.20;1.10;;;8.20;98.80;;;;;;4196952;28;20467;-68
2022/05/26 03:26:39;;;;;;;1.73;1.10;;;8.10;98.60;;;;;;4195531;28;20187;-68
2022/05/26 03:28:39;;;;;;;1.27;1.17;;;8.10;98.50;;;;;;4197008;28;20175;-68
2022/05/26 03:30:40;;;;;;;1.20;1.10;;;8.00;98.50;;;;;;4196941;28;20715;-67
2022/05/26 03:32:45;;;;;;;3.30;1.30;;;8.00;98.60;;;;;;4196673;28;20573;-67
2022/05/26 03:41:43;;;;;;;1.37;1.20;;;7.90;99.80;;;;;;4196522;28;20814;-67
2022/05/26 03:43:52;;;;;;;1.63;1.20;;;7.90;99.90;;;;;;4196784;28;20456;-68
2022/05/26 03:45:52;;;;;;;2.03;1.20;;;8.00;99.80;;;;;;4195806;28;20312;-67
2022/05/26 03:47:53;;;;;;;1.33;1.10;;;8.00;99.80;;;;;;4196476;28;20887;-67
2022/05/26 03:49:53;;;;;;;1.20;1.10;;;8.10;99.90;;;;;;4196453;28;20184;-68
2022/05/26 03:51:54;;;;;;;4.40;1.30;;;8.10;99.70;;;;;;4196447;28;20180;-67
2022/05/26 03:53:54;;;;;;;2.40;1.20;;;8.20;99.50;;;;;;4196472;28;20180;-68
2022/05/26 03:55:55;;;;;;;2.17;1.10;;;8.10;98.80;;;;;;4195704;28;20186;-67
2022/05/26 03:57:57;;;;;;;1.83;0.97;;;8.20;98.70;;;;;;4196447;28;20215;-68
2022/05/26 03:59:58;;;;;;;1.67;1.00;;;8.20;98.60;;;;;;4195364;28;20866;-67
2022/05/26 04:01:59;;;;;;;4.20;1.10;;;8.20;98.90;;;;;;4196345;28;20418;-68
2022/05/26 04:04:00;;;;;;;2.20;1.40;;;8.40;99.10;;;;;;4196274;28;20414;-68
2022/05/26 04:06:01;;;;;;;1.23;1.13;;;8.50;99.10;;;;;;4195509;28;20430;-68
2022/05/26 04:08:01;;;;;;;1.33;1.17;;;8.60;98.20;;;;;;4196471;28;20225;-68
2022/05/26 04:10:04;;;;;;;1.47;1.13;;;8.70;97.90;;;;;;4196155;28;20176;-68
2022/05/26 04:12:06;;;;;;;1.90;0.90;;;8.80;97.40;;;;;;4196082;28;20731;-69
2022/05/26 04:14:07;;;;;;;1.20;1.10;;;8.80;97.30;;;;;;4196197;28;20827;-67
2022/05/26 04:16:07;;;;;;;1.10;1.00;;;8.80;97.10;;;;;;4195023;28;20810;-68
2022/05/26 04:18:08;;;;;;;5.30;1.27;;;8.60;97.10;;;;;;4195743;28;20419;-68
2022/05/26 04:20:11;;;;;;;3.87;1.00;;;8.70;97.30;;;;;;4195803;28;20240;-68
2022/05/26 04:22:18;;;;;;;1.30;1.20;;;8.80;97.20;;;;;;4196038;28;20680;-68
2022/05/26 04:24:19;;;;;;;1.00;0.90;;;8.80;97.00;;;;;;4196085;28;20249;-67
2022/05/26 04:26:20;;;;;;;2.13;1.20;;;8.80;97.00;;;;;;4195070;28;20422;-67
2022/05/26 04:28:21;;;;;;;1.60;0.80;;;8.80;97.10;;;;;;4195872;28;20604;-68
2022/05/26 04:30:23;;;;;;;2.67;1.20;;;8.90;97.00;;;;;;4195649;28;20502;-67
2022/05/26 04:32:24;;;;;;;1.00;0.97;;;8.90;96.70;;;;;;4195760;28;20202;-67
2022/05/26 04:34:24;;;;;;;1.00;0.90;;;9.00;96.90;;;;;;4195934;28;20445;-68
2022/05/26 04:36:25;;;;;;;2.47;1.13;;;9.10;96.60;;;;;;4195568;28;20619;-68
2022/05/26 04:38:25;;;;;;;2.87;1.40;;;9.20;96.50;;;;;;4196003;28;20187;-68
2022/05/26 04:40:26;;;;;;;1.27;0.90;;;9.30;96.40;;;;;;4195784;28;20280;-67
2022/05/26 04:42:29;;;;;;;1.83;1.10;;;9.50;95.80;;;;;;4210984;28;20191;-68
2022/05/26 04:44:32;;;;;;;2.87;1.10;;;9.50;95.50;;;;;;4192246;28;20285;-68
2022/05/26 04:46:33;;;;;;;2.30;1.20;;;9.70;95.30;;;;;;4194626;28;20210;-68
2022/05/26 04:48:33;;;;;;;2.00;0.90;;;9.70;95.00;;;;;;4195674;28;20714;-68
2022/05/26 04:50:34;;;;;;;1.30;1.07;;;9.70;95.30;;;;;;4195645;28;20269;-68
2022/05/26 04:52:36;;;;;;;1.70;1.00;;;9.90;94.80;;;;;;4195383;28;20249;-68
2022/05/26 04:54:37;;;;;;;1.67;1.10;;;9.90;94.50;;;;;;4195577;28;20178;-68
2022/05/26 04:56:38;;;;;;;1.93;0.90;;;9.90;94.40;;;;;;4194830;28;20182;-68
2022/05/26 04:58:38;;;;;;;4.63;1.17;;;10.00;94.30;;;;;;4195164;28;20183;-67
2022/05/26 05:00:40;;;;;;;3.03;1.03;;;10.10;93.90;;;;;;4195403;28;20203;-65
2022/05/26 05:02:40;;;;;;;1.90;1.20;;;10.10;93.60;;;;;;4195433;28;20209;-68
2022/05/26 05:04:44;;;;;;;1.00;0.90;;;10.20;93.70;;;;;;4195293;28;20174;-68
2022/05/26 05:06:44;;;;;;;3.53;0.90;;;10.20;93.60;;;;;;4194828;28;20739;-68
2022/05/26 05:08:45;;;;;;;1.10;1.00;;;10.30;93.50;;;;;;4195557;28;20182;-68
2022/05/26 05:10:45;;;;;;;2.70;0.90;;;10.40;93.10;;;;;;4195461;28;20192;-68
2022/05/26 05:12:49;;;;;;;2.57;1.20;;;10.50;92.80;;;;;;4195317;28;20727;-68
2022/05/26 05:14:52;;;;;;;0.90;0.77;;;10.50;92.60;;;;;;4195099;28;20594;-68
2022/05/26 05:16:52;;;;;;;1.23;0.97;;;10.60;92.60;;;;;;4194696;28;20653;-68
2022/05/26 05:18:53;;;;;;;1.10;1.00;;;10.60;92.70;;;;;;4195105;28;20236;-68
2022/05/26 05:21:00;;;;;;;2.50;1.00;;;10.70;92.40;;;;;;4194995;28;20192;-68
2022/05/26 05:23:04;;;;;;;3.03;0.80;;;10.70;92.30;;;;;;4195171;28;20238;-68
2022/05/26 05:25:14;;;;;;;1.83;1.00;;;10.70;92.50;;;;;;4194921;28;20187;-68
2022/05/26 05:27:24;;;;;;;1.23;1.00;;;10.70;93.00;;;;;;4194796;28;20174;-68
2022/05/26 05:29:30;;;;;;;0.80;0.80;;;10.80;92.40;;;;;;4194931;28;20250;-68
2022/05/26 05:31:44;;;;;;;1.30;0.90;;;10.90;92.10;;;;;;4195080;28;20171;-67
2022/05/26 05:33:53;;;;;;;1.50;0.90;;;11.00;92.10;;;;;;4194961;28;20201;-68
2022/05/26 05:36:05;;;;;;;2.63;1.53;;;11.10;91.70;;;;;;4194497;28;20923;-68
2022/05/26 05:38:05;;;;;;;0.90;0.90;;;11.00;92.10;;;;;;4195275;28;20187;-68
2022/05/26 05:40:07;;;;;;;1.10;0.90;;;11.00;92.20;;;;;;4194976;28;20285;-68
2022/05/26 05:42:08;;;;;;;1.27;0.93;;;11.00;92.40;;;;;;4195082;28;20223;-67
2022/05/26 05:44:09;;;;;;;0.83;0.80;;;11.20;92.00;;;;;;4195032;28;20175;-69
2022/05/26 05:46:11;;;;;;;1.00;0.90;;;11.40;90.90;;;;;;4194389;28;20520;-68
2022/05/26 05:48:11;;;;;;;1.27;0.80;;;11.40;91.60;;;;;;4195022;28;20164;-68
2022/05/26 05:50:12;;;;;;;3.33;0.90;;;11.40;91.10;;;;;;4195006;28;20614;-68
2022/05/26 05:52:16;;;;;;;1.13;0.90;;;11.60;90.10;;;;;;4194936;28;20544;-67
2022/05/26 05:54:18;;;;;;;0.73;0.70;;;11.60;90.50;;;;;;4195032;28;20651;-67
2022/05/26 05:56:19;;;;;;;1.47;0.77;;;11.70;89.80;;;;;;4194186;28;20263;-68
2022/05/26 05:58:19;;;;;;;0.87;0.80;;;11.80;89.50;;;;;;4194753;28;20605;-68
2022/05/26 06:00:20;;;;;;;3.07;0.70;;;12.00;85.80;;;;;;4194831;28;20234;-68
2022/05/26 06:02:21;;;;;;;1.03;0.80;;;12.10;84.80;;;;;;4194643;28;20280;-67
2022/05/26 06:04:22;;;;;;;1.77;1.23;;;12.20;84.50;;;;;;4194820;28;20301;-67
2022/05/26 06:06:22;;;;;;;1.90;0.80;;;12.20;83.40;;;;;;4194230;28;21027;-68
2022/05/26 06:08:23;;;;;;;0.73;0.70;;;12.30;82.00;;;;;;4194732;28;20179;-68
2022/05/26 06:10:24;;;;;;;0.70;0.70;;;12.40;81.10;;;;;;4194395;28;20583;-68
2022/05/26 06:12:25;;;;;;;1.90;1.00;;;12.50;79.40;;;;;;4194346;28;20215;-67
2022/05/26 06:14:25;;;;;;;2.50;0.90;;;12.50;81.00;;;;;;4194647;28;20184;-66
2022/05/26 06:16:27;;;;;;;1.80;0.77;;;12.50;80.10;;;;;;4194028;28;20698;-66
2022/05/26 06:18:28;;;;;;;0.50;0.50;;;12.50;76.30;;;;;;4194574;28;20180;-68
2022/05/26 06:20:29;;;;;;;0.77;0.77;;;12.60;75.30;;;;;;4194478;28;20214;-68
2022/05/26 06:22:30;;;;;;;1.47;0.70;;;12.70;75.20;;;;;;4196099;28;20295;-68
2022/05/26 06:24:31;;;;;;;1.67;0.90;;;12.70;75.20;;;;;;4197900;28;20186;-68
2022/05/26 06:26:31;;;;;;;2.40;0.90;;;12.80;74.60;;;;;;4197216;28;20203;-68
2022/05/26 06:30:51;;;;;;;1.70;0.70;;;13.00;74.50;;;;;;4197993;28;20183;-67
2022/05/26 06:37:37;;;;;;;1.27;0.70;;;13.20;73.40;;;;;;4198098;28;20190;-68
2022/05/26 06:39:38;;;;;;;4.23;1.13;;;13.20;71.50;;;;;;4196314;28;20248;-68
2022/05/26 06:43:57;;;;;;;1.13;1.00;;;13.40;70.40;;;;;;4197945;28;20186;-67
2022/05/26 06:45:58;;;;;;;1.97;0.73;;;13.50;69.70;;;;;;4196989;28;20175;-68
2022/05/26 06:47:58;;;;;;;1.70;0.80;;;13.50;70.00;;;;;;4197631;28;20244;-68
2022/05/26 06:49:59;;;;;;;1.97;1.03;;;13.70;69.50;;;;;;4197674;28;20183;-68
2022/05/26 06:52:00;;;;;;;1.33;1.10;;;13.70;68.40;;;;;;4197725;28;20187;-68
2022/05/26 06:54:00;;;;;;;2.33;0.80;;;13.80;66.10;;;;;;4197575;28;20216;-67
2022/05/26 06:56:01;;;;;;;1.53;0.90;;;13.60;65.70;;;;;;4196708;28;20266;-68
2022/05/26 06:58:01;;;;;;;2.10;0.97;;;13.70;66.00;;;;;;4196164;28;20172;-68
2022/05/26 07:00:04;;;;;;;0.70;0.70;;;13.70;65.50;;;;;;4195757;28;20300;-68
2022/05/26 07:02:07;;;;;;;2.93;0.97;;;13.80;66.40;;;;;;4196883;28;20211;-68
2022/05/26 07:04:08;;;;;;;2.07;1.07;;;13.80;64.40;;;;;;4197108;28;20234;-68
2022/05/26 07:06:23;;;;;;;1.20;1.00;;;13.80;64.70;;;;;;4196583;28;20171;-68
2022/05/26 07:08:24;;;;;;;2.90;0.90;;;13.90;64.90;;;;;;4197145;28;20176;-68
2022/05/26 07:10:25;;;;;;;1.63;0.67;;;13.80;64.20;;;;;;4197324;28;20672;-68
2022/05/26 07:12:25;;;;;;;0.97;0.87;;;13.90;63.80;;;;;;4196830;28;20223;-68
2022/05/26 07:14:26;;;;;;;0.80;0.80;;;14.10;63.70;;;;;;4196945;28;20187;-68
2022/05/26 07:16:27;;;;;;;1.10;0.80;;;14.30;62.60;;;;;;4196481;28;20714;-67
2022/05/26 07:18:28;;;;;;;0.67;0.67;;;14.20;62.50;;;;;;4197006;28;20172;-68
2022/05/26 07:20:28;;;;;;;0.90;0.90;;;14.40;61.10;;;;;;4196989;28;20211;-67
2022/05/26 07:22:31;;;;;;;1.20;1.00;;;14.40;60.60;;;;;;4196988;28;20227;-67
2022/05/26 07:24:32;;;;;;;0.70;0.70;;;14.30;60.00;;;;;;4196919;28;20198;-67
2022/05/26 07:26:34;;;;;;;4.60;0.80;;;14.30;64.50;;;;;;4195825;28;20175;-67
2022/05/26 07:28:35;;;;;;;1.63;0.80;;;14.50;61.60;;;;;;4196858;28;20167;-67
2022/05/26 07:30:36;;;;;;;2.63;0.90;;;14.40;60.10;;;;;;4197148;28;20179;-67
2022/05/26 07:32:36;;;;;;;3.23;1.20;;;14.50;60.90;;;;;;4196857;28;20196;-67
2022/05/26 07:34:37;;;;;;;0.93;0.70;;;14.70;60.50;;;;;;4195492;28;20189;-67
2022/05/26 07:41:25;;;;;;;3.33;0.87;;;14.80;58.40;;;;;;4196791;28;20275;-67
2022/05/26 07:43:27;;;;;;;4.30;0.70;;;14.90;58.40;;;;;;4196827;28;20199;-67
2022/05/26 07:45:28;;;;;;;1.30;0.70;;;14.90;56.90;;;;;;4195981;28;20168;-68
2022/05/26 07:47:29;;;;;;;1.67;1.57;;;14.80;57.80;;;;;;4196651;28;20180;-67
2022/05/26 07:49:29;;;;;;;1.10;0.70;;;14.70;57.50;;;;;;4211922;28;20192;-67
2022/05/26 07:51:30;;;;;;;1.73;0.80;;;14.70;56.80;;;;;;4196455;28;20175;-68
2022/05/26 07:53:31;;;;;;;1.67;0.80;;;14.70;58.30;;;;;;4196477;28;20203;-66
2022/05/26 07:55:32;;;;;;;1.03;0.90;;;14.80;57.20;;;;;;4195753;28;20183;-67
2022/05/26 07:57:33;;;;;;;1.30;0.90;;;15.10;55.90;;;;;;4196421;28;20289;-67
2022/05/26 07:59:34;;;;;;;0.93;0.73;;;15.10;55.90;;;;;;4196802;28;20223;-67
2022/05/26 08:01:35;;;;;;;1.20;0.90;;;15.20;56.90;;;;;;4204500;28;20221;-67
2022/05/26 08:03:37;;;;;;;2.13;0.90;;;15.30;56.20;;;;;;4195928;28;20226;-67
2022/05/26 08:05:39;;;;;;;0.80;0.80;;;15.50;55.50;;;;;;4195590;28;20255;-67
2022/05/26 08:07:41;;;;;;;1.90;0.80;;;15.40;54.80;;;;;;4196047;28;20635;-67
2022/05/26 08:09:42;;;;;;;0.63;0.60;;;15.50;54.80;;;;;;4195987;28;20205;-67
2022/05/26 08:11:43;;;;;;;2.63;0.70;;;15.70;53.20;;;;;;4196020;28;20188;-67
2022/05/26 08:13:43;;;;;;;1.73;0.80;;;15.80;54.30;;;;;;4196031;28;20264;-67
2022/05/26 08:15:44;;;;;;;0.80;0.70;;;15.80;54.20;;;;;;4195401;28;20608;-67
2022/05/26 08:17:45;;;;;;;1.00;0.80;;;15.80;54.10;;;;;;4196113;28;20182;-67
2022/05/26 08:19:45;;;;;;;2.20;0.80;;;16.00;53.90;;;;;;4195988;28;20286;-67
2022/05/26 08:21:46;;;;;;;1.37;0.80;;;15.80;53.50;;;;;;4195801;28;20187;-66
2022/05/26 08:23:46;;;;;;;1.80;0.80;;;15.80;53.90;;;;;;4196970;28;20168;-67
2022/05/26 08:25:47;;;;;;;1.90;1.00;;;15.90;53.80;;;;;;4195451;28;20255;-67
2022/05/26 08:27:47;;;;;;;1.87;1.20;;;16.00;52.20;;;;;;4195992;28;20180;-67
2022/05/26 08:29:48;;;;;;;1.50;0.80;;;15.70;52.30;;;;;;4195868;28;20183;-67
2022/05/26 08:31:49;;;;;;;1.33;0.70;;;15.70;52.90;;;;;;4195859;28;20179;-67
2022/05/26 08:33:50;;;;;;;1.53;0.70;;;16.00;53.40;;;;;;4196121;28;20258;-67
2022/05/26 08:36:12;;;;;;;1.30;0.87;;;16.10;51.60;;;;;;4195142;28;20670;-67
2022/05/26 08:38:13;;;;;;;1.20;1.20;;;16.10;52.10;;;;;;4195760;28;20179;-66
2022/05/26 08:40:37;;;;;;;1.13;1.03;;;15.90;52.00;;;;;;4195758;28;20261;-67
2022/05/26 08:42:39;;;;;;;1.77;1.67;;;16.10;52.30;;;;;;4195757;28;20274;-66
2022/05/26 08:44:40;;;;;;;0.83;0.60;;;16.30;52.00;;;;;;4195442;28;20179;-67
2022/05/26 08:46:54;;;;;;;2.80;1.37;;;16.50;50.70;;;;;;4195301;28;20535;-67
2022/05/26 08:49:22;;;;;;;1.33;1.10;;;16.60;49.30;;;;;;4195849;28;20183;-67
2022/05/26 08:51:45;;;;;;;1.07;0.77;;;16.40;49.80;;;;;;4195733;28;20156;-66
2022/05/26 08:53:45;;;;;;;2.50;1.50;;;16.50;50.10;;;;;;4194647;28;20192;-66
2022/05/26 08:55:49;;;;;;;1.47;0.83;;;16.70;49.80;;;;;;4194951;28;20205;-67
2022/05/26 08:58:01;;;;;;;4.70;1.53;;;16.80;48.80;;;;;;4195465;28;20184;-66
2022/05/26 09:00:03;;;;;;;0.60;0.60;;;16.80;48.90;;;;;;4195242;28;20537;-66
2022/05/26 09:02:04;;;;;;;1.37;0.70;;;16.90;50.40;;;;;;4195608;28;20206;-67
2022/05/26 09:04:05;;;;;;;1.47;0.70;;;17.00;48.50;;;;;;4195621;28;20218;-67
2022/05/26 09:06:16;;;;;;;1.03;0.73;;;17.40;47.60;;;;;;4194752;28;20188;-66
2022/05/26 09:13:06;;;;;;;2.77;0.80;;;17.30;46.90;;;;;;4195255;28;20276;-66
2022/05/26 09:15:07;;;;;;;1.90;0.80;;;17.60;47.20;;;;;;4194980;28;20184;-67
2022/05/26 09:17:13;;;;;;;0.60;0.60;;;17.50;47.80;;;;;;4194442;28;20210;-66
2022/05/26 09:19:20;;;;;;;1.57;0.70;;;17.90;47.10;;;;;;4195016;28;20700;-66
2022/05/26 09:21:24;;;;;;;0.70;0.70;;;18.10;46.60;;;;;;4194929;28;20320;-66
2022/05/26 09:23:28;;;;;;;0.80;0.80;;;18.10;47.70;;;;;;4195212;28;20610;-66
2022/05/26 09:25:37;;;;;;;2.63;1.13;;;17.70;47.00;;;;;;4194373;28;20598;-66
2022/05/26 09:27:44;;;;;;;1.00;0.80;;;17.40;48.10;;;;;;4194692;28;20542;-66
2022/05/26 09:29:45;;;;;;;4.77;1.67;;;17.30;49.50;;;;;;4195104;28;20258;-67
2022/05/26 09:31:48;;;;;;;0.80;0.80;;;17.30;50.40;;;;;;4194950;28;20206;-66
2022/05/26 09:34:18;;;;;;;1.27;0.90;;;17.20;51.10;;;;;;4195167;28;20254;-66
2022/05/26 09:36:27;;;;;;;1.30;0.80;;;17.40;47.40;;;;;;4194659;28;20180;-66
2022/05/26 09:38:32;;;;;;;0.80;0.80;;;17.80;47.10;;;;;;4194993;28;20661;-66
2022/05/26 09:40:40;;;;;;;1.33;0.80;;;18.20;47.60;;;;;;4195268;28;20204;-66
2022/05/26 09:42:43;;;;;;;2.10;0.70;;;18.40;47.40;;;;;;4195134;28;20201;-65
2022/05/26 09:44:50;;;;;;;0.80;0.57;;;18.40;46.80;;;;;;4195013;28;20204;-66
2022/05/26 09:46:54;;;;;;;6.97;2.87;;;18.10;46.60;;;;;;4194289;28;20223;-68
2022/05/26 09:49:07;;;;;;;2.33;1.03;;;17.90;48.80;;;;;;4195153;28;20266;-67
2022/05/26 09:51:24;;;;;;;3.60;1.00;;;18.30;47.50;;;;;;4195074;28;20203;-67
2022/05/26 09:53:37;;;;;;;1.07;0.97;;;18.30;46.50;;;;;;4194850;28;20199;-67
2022/05/26 09:55:40;;;;;;;1.87;0.90;;;18.20;45.70;;;;;;4193846;28;20175;-68
2022/05/26 09:57:41;;;;;;;1.27;0.80;;;18.40;46.00;;;;;;4189923;28;20191;-69
2022/05/26 09:59:42;;;;;;;1.33;0.80;;;18.30;45.00;;;;;;4203809;28;20210;-67
2022/05/26 10:01:43;;;;;;;1.20;1.00;;;18.60;44.30;;;;;;4200472;28;20199;-68
2022/05/26 10:04:11;;;;;;;1.43;0.80;;;18.50;44.10;;;;;;4204985;28;20217;-68
2022/05/26 10:06:27;;;;;;;1.00;0.93;;;18.70;43.80;;;;;;4195837;28;20245;-68
2022/05/26 10:08:41;;;;;;;1.40;1.00;;;18.40;45.50;;;;;;4194285;28;20239;-68
2022/05/26 10:10:55;;;;;;;1.43;0.90;;;18.00;46.40;;;;;;4208809;28;20867;-68
2022/05/26 10:13:20;;;;;;;1.43;0.70;;;18.20;46.80;;;;;;4195976;28;20251;-69
2022/05/26 10:15:41;;;;;;;0.87;0.80;;;18.20;46.30;;;;;;4200370;28;20219;-68
2022/05/26 10:17:53;;;;;;;0.80;0.70;;;18.10;46.70;;;;;;4194216;28;20186;-68
2022/05/26 10:20:08;;;;;;;2.10;0.80;;;18.20;45.40;;;;;;4205898;28;20628;-68
2022/05/26 10:22:08;;;;;;;0.77;0.77;;;17.90;46.60;;;;;;4193219;28;20293;-69
2022/05/26 10:24:40;;;;;;;2.50;0.90;;;17.70;47.10;;;;;;4208243;28;20256;-68
2022/05/26 10:26:52;;;;;;;1.60;1.00;;;17.30;48.40;;;;;;4180877;28;20180;-68
2022/05/26 10:29:34;;;;;;;2.30;1.00;;;17.10;49.50;;;;;;4207220;28;20214;-68
2022/05/26 10:32:08;;;;;;;1.63;0.80;;;17.10;50.10;;;;;;4203569;28;20179;-67
2022/05/26 10:34:27;;;;;;;0.80;0.73;;;17.10;50.60;;;;;;4196587;28;20176;-68
2022/05/26 10:36:49;;;;;;;1.37;0.80;;;17.20;50.00;;;;;;4177098;28;20172;-69
2022/05/26 10:39:21;;;;;;;2.37;0.83;;;17.80;50.10;;;;;;4207433;28;20197;-69
2022/05/26 10:41:40;;;;;;;0.73;0.73;;;18.20;48.70;;;;;;4201498;28;20195;-68
2022/05/26 10:43:47;;;;;;;0.73;0.70;;;18.90;47.60;;;;;;4200572;28;20199;-67
2022/05/26 10:45:51;;;;;;;1.23;0.77;;;19.40;45.00;;;;;;4204608;28;20540;-67
2022/05/26 10:48:30;;;;;;;4.53;1.00;;;19.10;46.30;;;;;;4198871;28;20218;-67
2022/05/26 10:50:39;;;;;;;2.90;0.70;;;18.20;48.20;;;;;;4174869;28;20234;-68
2022/05/26 10:52:45;;;;;;;1.17;0.80;;;18.10;49.00;;;;;;4188145;28;20250;-69
2022/05/26 10:54:56;;;;;;;1.03;0.90;;;18.20;47.30;;;;;;4207819;28;20177;-68
2022/05/26 10:57:04;;;;;;;1.30;1.20;;;18.30;48.00;;;;;;4197734;28;20269;-68
2022/05/26 10:59:26;;;;;;;2.43;2.23;;;18.80;46.70;;;;;;4199925;28;20182;-69
2022/05/26 11:01:36;;;;;;;1.37;0.73;;;18.80;45.80;;;;;;4202255;28;20655;-67
2022/05/26 11:03:42;;;;;;;2.77;0.90;;;19.10;46.30;;;;;;4203660;28;20281;-67
2022/05/26 11:05:46;;;;;;;1.50;0.93;;;19.30;45.30;;;;;;4204974;28;20187;-67
2022/05/26 11:08:04;;;;;;;1.07;0.80;;;20.20;44.70;;;;;;4199892;28;20172;-67
2022/05/26 11:10:13;;;;;;;3.53;1.07;;;20.20;43.50;;;;;;4210668;28;20323;-67
2022/05/26 11:12:20;;;;;;;0.80;0.80;;;20.20;42.70;;;;;;4198512;28;20214;-68
2022/05/26 11:19:24;;;;;;;1.10;0.80;;;20.30;41.60;;;;;;4206884;28;20622;-68
2022/05/26 11:21:24;;;;;;;1.97;1.00;;;20.40;40.90;;;;;;4204649;28;20191;-67
2022/05/26 11:23:28;;;;;;;2.03;1.00;;;20.40;41.10;;;;;;4212108;28;20218;-68
2022/05/26 11:25:55;;;;;;;1.00;1.00;;;20.70;42.50;;;;;;4203970;28;20266;-68
2022/05/26 11:27:58;;;;;;;6.77;1.00;;;21.10;40.10;;;;;;4208896;28;20183;-69
2022/05/26 11:36:07;;;;;;;1.70;1.17;;;20.40;43.20;;;;;;4200349;28;20179;-68
2022/05/26 11:37:57;;;;;;;1.43;1.10;;;20.70;40.60;;;;;;4179989;28;20694;-68